sensor_id;sensor_type;location;lat;lon;timestamp;P1;durP1;ratioP1;P2;durP2;ratioP2
20657;SDS011;10488;50.846;4.078;2023-08-06T00:00:16;7.85;;;2.85;;
20657;SDS011;10488;50.846;4.078;2023-08-06T00:02:42;5.85;;;3.15;;
20657;SDS011;10488;50.846;4.078;2023-08-06T00:05:08;10.35;;;2.95;;
20657;SDS011;10488;50.846;4.078;2023-08-06T00:07:33;5.90;;;3.28;;
20657;SDS011;10488;50.846;4.078;2023-08-06T00:09:59;5.72;;;3.67;;
20657;SDS011;10488;50.846;4.078;2023-08-06T00:12:24;5.72;;;3.95;;
20657;SDS011;10488;50.846;4.078;2023-08-06T00:14:51;9.88;;;4.50;;
20657;SDS011;10488;50.846;4.078;2023-08-06T00:17:17;9.00;;;4.35;;
20657;SDS011;10488;50.846;4.078;2023-08-06T00:19:43;9.32;;;4.28;;
20657;SDS011;10488;50.846;4.078;2023-08-06T00:22:08;6.63;;;4.20;;
20657;SDS011;10488;50.846;4.078;2023-08-06T00:24:34;9.05;;;4.10;;
20657;SDS011;10488;50.846;4.078;2023-08-06T00:27:00;8.55;;;4.57;;
20657;SDS011;10488;50.846;4.078;2023-08-06T00:29:26;7.60;;;4.97;;
20657;SDS011;10488;50.846;4.078;2023-08-06T00:31:52;9.98;;;4.93;;
20657;SDS011;10488;50.846;4.078;2023-08-06T00:34:17;9.93;;;5.70;;
20657;SDS011;10488;50.846;4.078;2023-08-06T00:36:43;14.38;;;5.35;;
20657;SDS011;10488;50.846;4.078;2023-08-06T00:39:09;13.32;;;5.55;;
20657;SDS011;10488;50.846;4.078;2023-08-06T00:41:34;10.23;;;5.97;;
20657;SDS011;10488;50.846;4.078;2023-08-06T00:44:00;15.85;;;6.20;;
20657;SDS011;10488;50.846;4.078;2023-08-06T00:46:26;11.48;;;6.05;;
20657;SDS011;10488;50.846;4.078;2023-08-06T00:48:52;14.93;;;6.90;;
20657;SDS011;10488;50.846;4.078;2023-08-06T00:51:18;13.00;;;6.45;;
20657;SDS011;10488;50.846;4.078;2023-08-06T00:53:45;8.73;;;6.15;;
20657;SDS011;10488;50.846;4.078;2023-08-06T00:56:11;8.23;;;5.82;;
20657;SDS011;10488;50.846;4.078;2023-08-06T00:58:37;16.85;;;7.38;;
20657;SDS011;10488;50.846;4.078;2023-08-06T01:01:04;12.30;;;6.93;;
20657;SDS011;10488;50.846;4.078;2023-08-06T01:03:30;11.50;;;7.38;;
20657;SDS011;10488;50.846;4.078;2023-08-06T01:05:55;15.77;;;7.40;;
20657;SDS011;10488;50.846;4.078;2023-08-06T01:11:15;11.52;;;6.50;;
20657;SDS011;10488;50.846;4.078;2023-08-06T01:13:42;8.70;;;4.80;;
20657;SDS011;10488;50.846;4.078;2023-08-06T01:16:15;10.88;;;5.60;;
20657;SDS011;10488;50.846;4.078;2023-08-06T01:18:43;6.75;;;4.47;;
20657;SDS011;10488;50.846;4.078;2023-08-06T01:21:14;7.35;;;4.40;;
20657;SDS011;10488;50.846;4.078;2023-08-06T01:23:43;5.97;;;3.60;;
20657;SDS011;10488;50.846;4.078;2023-08-06T01:26:30;12.45;;;3.50;;
20657;SDS011;10488;50.846;4.078;2023-08-06T01:31:35;5.63;;;2.30;;
20657;SDS011;10488;50.846;4.078;2023-08-06T01:34:05;5.55;;;2.25;;
20657;SDS011;10488;50.846;4.078;2023-08-06T01:36:34;5.68;;;1.75;;
20657;SDS011;10488;50.846;4.078;2023-08-06T01:39:00;7.00;;;1.42;;
20657;SDS011;10488;50.846;4.078;2023-08-06T01:41:26;3.05;;;1.40;;
20657;SDS011;10488;50.846;4.078;2023-08-06T01:43:51;7.13;;;1.40;;
20657;SDS011;10488;50.846;4.078;2023-08-06T01:46:17;8.75;;;1.20;;
20657;SDS011;10488;50.846;4.078;2023-08-06T01:48:43;4.43;;;1.65;;
20657;SDS011;10488;50.846;4.078;2023-08-06T01:51:08;8.20;;;1.17;;
20657;SDS011;10488;50.846;4.078;2023-08-06T01:53:34;3.17;;;1.50;;
20657;SDS011;10488;50.846;4.078;2023-08-06T01:56:00;6.85;;;1.50;;
20657;SDS011;10488;50.846;4.078;2023-08-06T01:58:26;6.15;;;1.25;;
20657;SDS011;10488;50.846;4.078;2023-08-06T02:00:51;7.15;;;1.40;;
20657;SDS011;10488;50.846;4.078;2023-08-06T02:03:17;7.90;;;1.27;;
20657;SDS011;10488;50.846;4.078;2023-08-06T02:05:43;3.65;;;1.10;;
20657;SDS011;10488;50.846;4.078;2023-08-06T02:08:08;6.05;;;1.20;;
20657;SDS011;10488;50.846;4.078;2023-08-06T02:10:34;2.90;;;1.25;;
20657;SDS011;10488;50.846;4.078;2023-08-06T02:13:00;8.85;;;1.63;;
20657;SDS011;10488;50.846;4.078;2023-08-06T02:15:25;4.53;;;2.08;;
20657;SDS011;10488;50.846;4.078;2023-08-06T02:17:51;5.78;;;2.00;;
20657;SDS011;10488;50.846;4.078;2023-08-06T02:20:17;7.50;;;2.22;;
20657;SDS011;10488;50.846;4.078;2023-08-06T02:22:42;9.77;;;2.38;;
20657;SDS011;10488;50.846;4.078;2023-08-06T02:25:08;13.35;;;3.05;;
20657;SDS011;10488;50.846;4.078;2023-08-06T02:27:34;8.43;;;2.70;;
20657;SDS011;10488;50.846;4.078;2023-08-06T02:29:59;12.05;;;2.88;;
20657;SDS011;10488;50.846;4.078;2023-08-06T02:32:25;5.72;;;3.25;;
20657;SDS011;10488;50.846;4.078;2023-08-06T02:34:51;9.10;;;3.33;;
20657;SDS011;10488;50.846;4.078;2023-08-06T02:37:16;5.82;;;2.88;;
20657;SDS011;10488;50.846;4.078;2023-08-06T02:39:42;11.93;;;4.50;;
20657;SDS011;10488;50.846;4.078;2023-08-06T02:42:08;12.35;;;5.70;;
20657;SDS011;10488;50.846;4.078;2023-08-06T02:44:34;18.20;;;8.70;;
20657;SDS011;10488;50.846;4.078;2023-08-06T02:47:00;19.13;;;10.55;;
20657;SDS011;10488;50.846;4.078;2023-08-06T02:49:27;19.02;;;10.32;;
20657;SDS011;10488;50.846;4.078;2023-08-06T02:51:52;14.32;;;9.63;;
20657;SDS011;10488;50.846;4.078;2023-08-06T02:54:18;17.60;;;8.73;;
20657;SDS011;10488;50.846;4.078;2023-08-06T02:56:45;14.50;;;8.90;;
20657;SDS011;10488;50.846;4.078;2023-08-06T02:59:11;15.15;;;8.68;;
20657;SDS011;10488;50.846;4.078;2023-08-06T03:01:37;11.38;;;6.78;;
20657;SDS011;10488;50.846;4.078;2023-08-06T03:04:03;11.93;;;3.53;;
20657;SDS011;10488;50.846;4.078;2023-08-06T03:06:29;3.95;;;2.35;;
20657;SDS011;10488;50.846;4.078;2023-08-06T03:08:54;5.05;;;1.88;;
20657;SDS011;10488;50.846;4.078;2023-08-06T03:11:20;4.50;;;1.90;;
20657;SDS011;10488;50.846;4.078;2023-08-06T03:13:49;2.05;;;1.75;;
20657;SDS011;10488;50.846;4.078;2023-08-06T03:16:14;4.20;;;1.98;;
20657;SDS011;10488;50.846;4.078;2023-08-06T03:18:40;4.35;;;1.35;;
20657;SDS011;10488;50.846;4.078;2023-08-06T03:21:06;4.25;;;1.67;;
20657;SDS011;10488;50.846;4.078;2023-08-06T03:23:31;5.95;;;1.83;;
20657;SDS011;10488;50.846;4.078;2023-08-06T03:26:03;2.13;;;1.90;;
20657;SDS011;10488;50.846;4.078;2023-08-06T03:28:29;5.50;;;2.28;;
20657;SDS011;10488;50.846;4.078;2023-08-06T03:31:01;6.05;;;2.60;;
20657;SDS011;10488;50.846;4.078;2023-08-06T03:33:28;10.13;;;3.20;;
20657;SDS011;10488;50.846;4.078;2023-08-06T03:35:54;7.90;;;2.88;;
20657;SDS011;10488;50.846;4.078;2023-08-06T03:38:19;9.75;;;3.33;;
20657;SDS011;10488;50.846;4.078;2023-08-06T03:40:49;8.60;;;3.10;;
20657;SDS011;10488;50.846;4.078;2023-08-06T03:43:14;11.43;;;2.88;;
20657;SDS011;10488;50.846;4.078;2023-08-06T03:45:40;8.45;;;3.03;;
20657;SDS011;10488;50.846;4.078;2023-08-06T03:48:06;10.30;;;2.83;;
20657;SDS011;10488;50.846;4.078;2023-08-06T03:50:32;9.02;;;2.90;;
20657;SDS011;10488;50.846;4.078;2023-08-06T03:52:58;13.32;;;3.72;;
20657;SDS011;10488;50.846;4.078;2023-08-06T03:55:23;6.10;;;3.03;;
20657;SDS011;10488;50.846;4.078;2023-08-06T03:57:49;5.22;;;3.30;;
20657;SDS011;10488;50.846;4.078;2023-08-06T04:00:15;10.23;;;3.50;;
20657;SDS011;10488;50.846;4.078;2023-08-06T04:02:41;9.82;;;3.55;;
20657;SDS011;10488;50.846;4.078;2023-08-06T04:05:06;10.88;;;3.50;;
20657;SDS011;10488;50.846;4.078;2023-08-06T04:07:32;6.82;;;3.20;;
20657;SDS011;10488;50.846;4.078;2023-08-06T04:09:59;7.60;;;3.35;;
20657;SDS011;10488;50.846;4.078;2023-08-06T04:12:26;9.38;;;2.47;;
20657;SDS011;10488;50.846;4.078;2023-08-06T04:14:52;6.13;;;3.63;;
20657;SDS011;10488;50.846;4.078;2023-08-06T04:17:19;8.27;;;4.05;;
20657;SDS011;10488;50.846;4.078;2023-08-06T04:19:48;7.68;;;4.32;;
20657;SDS011;10488;50.846;4.078;2023-08-06T04:22:15;9.10;;;4.72;;
20657;SDS011;10488;50.846;4.078;2023-08-06T04:24:41;11.98;;;5.10;;
20657;SDS011;10488;50.846;4.078;2023-08-06T04:27:08;9.15;;;5.40;;
20657;SDS011;10488;50.846;4.078;2023-08-06T04:29:35;9.30;;;5.45;;
20657;SDS011;10488;50.846;4.078;2023-08-06T04:32:01;9.30;;;5.78;;
20657;SDS011;10488;50.846;4.078;2023-08-06T04:34:26;18.42;;;6.13;;
20657;SDS011;10488;50.846;4.078;2023-08-06T04:36:52;10.75;;;6.10;;
20657;SDS011;10488;50.846;4.078;2023-08-06T04:39:18;13.13;;;7.03;;
20657;SDS011;10488;50.846;4.078;2023-08-06T04:41:43;12.75;;;5.53;;
20657;SDS011;10488;50.846;4.078;2023-08-06T04:44:09;13.85;;;5.30;;
20657;SDS011;10488;50.846;4.078;2023-08-06T04:46:35;14.55;;;5.18;;
20657;SDS011;10488;50.846;4.078;2023-08-06T04:49:00;12.57;;;3.97;;
20657;SDS011;10488;50.846;4.078;2023-08-06T04:51:26;9.63;;;4.22;;
20657;SDS011;10488;50.846;4.078;2023-08-06T04:53:52;9.75;;;3.70;;
20657;SDS011;10488;50.846;4.078;2023-08-06T04:56:17;13.32;;;4.05;;
20657;SDS011;10488;50.846;4.078;2023-08-06T04:58:43;13.80;;;4.32;;
20657;SDS011;10488;50.846;4.078;2023-08-06T05:01:09;7.18;;;3.60;;
20657;SDS011;10488;50.846;4.078;2023-08-06T05:03:34;13.75;;;4.30;;
20657;SDS011;10488;50.846;4.078;2023-08-06T05:06:00;10.10;;;4.05;;
20657;SDS011;10488;50.846;4.078;2023-08-06T05:08:26;9.63;;;2.97;;
20657;SDS011;10488;50.846;4.078;2023-08-06T05:10:51;10.48;;;3.38;;
20657;SDS011;10488;50.846;4.078;2023-08-06T05:13:17;7.03;;;3.05;;
20657;SDS011;10488;50.846;4.078;2023-08-06T05:15:43;10.82;;;3.42;;
20657;SDS011;10488;50.846;4.078;2023-08-06T05:18:10;13.32;;;3.40;;
20657;SDS011;10488;50.846;4.078;2023-08-06T05:20:37;5.15;;;2.60;;
20657;SDS011;10488;50.846;4.078;2023-08-06T05:23:06;11.63;;;3.17;;
20657;SDS011;10488;50.846;4.078;2023-08-06T05:25:33;8.20;;;2.90;;
20657;SDS011;10488;50.846;4.078;2023-08-06T05:28:00;10.48;;;3.08;;
20657;SDS011;10488;50.846;4.078;2023-08-06T05:30:26;5.93;;;2.45;;
20657;SDS011;10488;50.846;4.078;2023-08-06T05:32:53;9.10;;;3.08;;
20657;SDS011;10488;50.846;4.078;2023-08-06T05:35:18;10.38;;;2.78;;
20657;SDS011;10488;50.846;4.078;2023-08-06T05:37:44;6.20;;;2.80;;
20657;SDS011;10488;50.846;4.078;2023-08-06T05:40:10;14.85;;;4.10;;
20657;SDS011;10488;50.846;4.078;2023-08-06T05:42:36;8.63;;;3.05;;
20657;SDS011;10488;50.846;4.078;2023-08-06T05:45:01;8.27;;;3.20;;
20657;SDS011;10488;50.846;4.078;2023-08-06T05:47:27;10.85;;;3.33;;
20657;SDS011;10488;50.846;4.078;2023-08-06T05:49:53;19.65;;;3.70;;
20657;SDS011;10488;50.846;4.078;2023-08-06T05:52:18;7.10;;;2.88;;
20657;SDS011;10488;50.846;4.078;2023-08-06T05:54:44;6.05;;;2.92;;
20657;SDS011;10488;50.846;4.078;2023-08-06T05:57:09;9.23;;;3.38;;
20657;SDS011;10488;50.846;4.078;2023-08-06T05:59:35;14.10;;;3.42;;
20657;SDS011;10488;50.846;4.078;2023-08-06T06:02:01;13.20;;;3.83;;
20657;SDS011;10488;50.846;4.078;2023-08-06T06:04:27;10.20;;;3.13;;
20657;SDS011;10488;50.846;4.078;2023-08-06T06:06:53;14.27;;;3.67;;
20657;SDS011;10488;50.846;4.078;2023-08-06T06:09:18;11.98;;;4.10;;
20657;SDS011;10488;50.846;4.078;2023-08-06T06:11:44;13.38;;;3.60;;
20657;SDS011;10488;50.846;4.078;2023-08-06T06:14:10;13.65;;;3.90;;
20657;SDS011;10488;50.846;4.078;2023-08-06T06:16:35;11.40;;;3.95;;
20657;SDS011;10488;50.846;4.078;2023-08-06T06:19:01;8.80;;;3.30;;
20657;SDS011;10488;50.846;4.078;2023-08-06T06:21:27;9.60;;;3.55;;
20657;SDS011;10488;50.846;4.078;2023-08-06T06:23:53;13.05;;;3.40;;
20657;SDS011;10488;50.846;4.078;2023-08-06T06:26:18;11.10;;;3.33;;
20657;SDS011;10488;50.846;4.078;2023-08-06T06:28:44;8.23;;;3.45;;
20657;SDS011;10488;50.846;4.078;2023-08-06T06:31:10;18.30;;;3.50;;
20657;SDS011;10488;50.846;4.078;2023-08-06T06:33:36;9.48;;;3.22;;
20657;SDS011;10488;50.846;4.078;2023-08-06T06:36:01;13.40;;;2.65;;
20657;SDS011;10488;50.846;4.078;2023-08-06T06:38:28;9.02;;;2.58;;
20657;SDS011;10488;50.846;4.078;2023-08-06T06:40:55;6.75;;;1.98;;
20657;SDS011;10488;50.846;4.078;2023-08-06T06:43:24;7.40;;;2.13;;
20657;SDS011;10488;50.846;4.078;2023-08-06T06:45:53;10.73;;;2.08;;
20657;SDS011;10488;50.846;4.078;2023-08-06T06:48:25;5.90;;;1.85;;
20657;SDS011;10488;50.846;4.078;2023-08-06T06:50:55;5.43;;;1.67;;
20657;SDS011;10488;50.846;4.078;2023-08-06T06:53:21;14.15;;;3.20;;
20657;SDS011;10488;50.846;4.078;2023-08-06T06:55:54;6.80;;;1.73;;
20657;SDS011;10488;50.846;4.078;2023-08-06T06:58:20;9.00;;;1.63;;
20657;SDS011;10488;50.846;4.078;2023-08-06T07:00:46;19.67;;;2.83;;
20657;SDS011;10488;50.846;4.078;2023-08-06T07:03:13;5.85;;;1.35;;
20657;SDS011;10488;50.846;4.078;2023-08-06T07:05:43;12.85;;;2.22;;
20657;SDS011;10488;50.846;4.078;2023-08-06T07:08:09;7.63;;;1.30;;
20657;SDS011;10488;50.846;4.078;2023-08-06T07:10:35;9.73;;;1.40;;
20657;SDS011;10488;50.846;4.078;2023-08-06T07:13:01;9.50;;;1.40;;
20657;SDS011;10488;50.846;4.078;2023-08-06T07:15:26;8.32;;;1.75;;
20657;SDS011;10488;50.846;4.078;2023-08-06T07:17:52;7.20;;;1.48;;
20657;SDS011;10488;50.846;4.078;2023-08-06T07:20:18;15.73;;;2.03;;
20657;SDS011;10488;50.846;4.078;2023-08-06T07:22:44;5.80;;;1.60;;
20657;SDS011;10488;50.846;4.078;2023-08-06T07:25:10;8.82;;;1.70;;
20657;SDS011;10488;50.846;4.078;2023-08-06T07:27:36;8.73;;;1.63;;
20657;SDS011;10488;50.846;4.078;2023-08-06T07:30:01;12.23;;;1.77;;
20657;SDS011;10488;50.846;4.078;2023-08-06T07:32:28;12.57;;;1.88;;
20657;SDS011;10488;50.846;4.078;2023-08-06T07:34:53;12.45;;;1.65;;
20657;SDS011;10488;50.846;4.078;2023-08-06T07:37:24;15.10;;;2.33;;
20657;SDS011;10488;50.846;4.078;2023-08-06T07:39:50;10.88;;;2.00;;
20657;SDS011;10488;50.846;4.078;2023-08-06T07:42:16;8.77;;;2.47;;
20657;SDS011;10488;50.846;4.078;2023-08-06T07:44:41;12.13;;;1.60;;
20657;SDS011;10488;50.846;4.078;2023-08-06T07:47:07;7.20;;;2.15;;
20657;SDS011;10488;50.846;4.078;2023-08-06T07:49:33;4.22;;;1.27;;
20657;SDS011;10488;50.846;4.078;2023-08-06T07:51:58;10.27;;;1.50;;
20657;SDS011;10488;50.846;4.078;2023-08-06T07:54:24;13.07;;;1.58;;
20657;SDS011;10488;50.846;4.078;2023-08-06T07:56:50;8.68;;;1.60;;
20657;SDS011;10488;50.846;4.078;2023-08-06T07:59:15;7.43;;;1.73;;
20657;SDS011;10488;50.846;4.078;2023-08-06T08:01:41;3.85;;;1.33;;
20657;SDS011;10488;50.846;4.078;2023-08-06T08:04:07;3.63;;;1.35;;
20657;SDS011;10488;50.846;4.078;2023-08-06T08:06:33;8.68;;;1.50;;
20657;SDS011;10488;50.846;4.078;2023-08-06T08:08:59;3.75;;;1.17;;
20657;SDS011;10488;50.846;4.078;2023-08-06T08:11:25;7.38;;;2.15;;
20657;SDS011;10488;50.846;4.078;2023-08-06T08:13:51;6.30;;;1.27;;
20657;SDS011;10488;50.846;4.078;2023-08-06T08:16:17;4.63;;;1.42;;
20657;SDS011;10488;50.846;4.078;2023-08-06T08:18:42;5.80;;;1.23;;
20657;SDS011;10488;50.846;4.078;2023-08-06T08:21:08;7.78;;;1.20;;
20657;SDS011;10488;50.846;4.078;2023-08-06T08:23:34;6.00;;;1.20;;
20657;SDS011;10488;50.846;4.078;2023-08-06T08:25:59;2.92;;;1.15;;
20657;SDS011;10488;50.846;4.078;2023-08-06T08:28:27;4.20;;;1.27;;
20657;SDS011;10488;50.846;4.078;2023-08-06T08:30:53;7.82;;;1.20;;
20657;SDS011;10488;50.846;4.078;2023-08-06T08:33:18;10.75;;;1.75;;
20657;SDS011;10488;50.846;4.078;2023-08-06T08:35:45;14.77;;;2.15;;
20657;SDS011;10488;50.846;4.078;2023-08-06T08:38:11;6.63;;;1.23;;
20657;SDS011;10488;50.846;4.078;2023-08-06T08:40:37;6.60;;;1.20;;
20657;SDS011;10488;50.846;4.078;2023-08-06T08:43:15;10.82;;;1.50;;
20657;SDS011;10488;50.846;4.078;2023-08-06T08:45:41;8.52;;;1.63;;
20657;SDS011;10488;50.846;4.078;2023-08-06T08:48:09;6.00;;;1.30;;
20657;SDS011;10488;50.846;4.078;2023-08-06T08:50:39;11.20;;;1.73;;
20657;SDS011;10488;50.846;4.078;2023-08-06T08:53:05;7.38;;;1.85;;
20657;SDS011;10488;50.846;4.078;2023-08-06T08:55:31;6.93;;;1.60;;
20657;SDS011;10488;50.846;4.078;2023-08-06T08:57:57;9.30;;;2.40;;
20657;SDS011;10488;50.846;4.078;2023-08-06T09:00:22;12.27;;;2.00;;
20657;SDS011;10488;50.846;4.078;2023-08-06T09:02:49;9.80;;;1.63;;
20657;SDS011;10488;50.846;4.078;2023-08-06T09:05:15;7.60;;;1.90;;
20657;SDS011;10488;50.846;4.078;2023-08-06T09:07:43;14.68;;;1.92;;
20657;SDS011;10488;50.846;4.078;2023-08-06T09:10:13;8.68;;;1.77;;
20657;SDS011;10488;50.846;4.078;2023-08-06T09:12:42;10.55;;;2.38;;
20657;SDS011;10488;50.846;4.078;2023-08-06T09:15:09;8.23;;;1.73;;
20657;SDS011;10488;50.846;4.078;2023-08-06T09:17:36;5.53;;;1.65;;
20657;SDS011;10488;50.846;4.078;2023-08-06T09:20:11;4.60;;;1.60;;
20657;SDS011;10488;50.846;4.078;2023-08-06T09:22:37;12.40;;;2.03;;
20657;SDS011;10488;50.846;4.078;2023-08-06T09:25:04;5.95;;;1.55;;
20657;SDS011;10488;50.846;4.078;2023-08-06T09:27:34;10.02;;;1.75;;
20657;SDS011;10488;50.846;4.078;2023-08-06T09:30:02;5.88;;;1.92;;
20657;SDS011;10488;50.846;4.078;2023-08-06T09:32:43;7.85;;;2.50;;
20657;SDS011;10488;50.846;4.078;2023-08-06T09:35:15;8.30;;;2.35;;
20657;SDS011;10488;50.846;4.078;2023-08-06T09:37:42;15.32;;;1.85;;
20657;SDS011;10488;50.846;4.078;2023-08-06T09:42:52;3.25;;;1.63;;
20657;SDS011;10488;50.846;4.078;2023-08-06T09:45:18;8.35;;;2.28;;
20657;SDS011;10488;50.846;4.078;2023-08-06T09:47:43;6.15;;;1.30;;
20657;SDS011;10488;50.846;4.078;2023-08-06T09:50:17;4.75;;;1.10;;
20657;SDS011;10488;50.846;4.078;2023-08-06T09:52:43;8.32;;;1.35;;
20657;SDS011;10488;50.846;4.078;2023-08-06T09:55:12;7.20;;;1.15;;
20657;SDS011;10488;50.846;4.078;2023-08-06T09:57:41;6.93;;;1.58;;
20657;SDS011;10488;50.846;4.078;2023-08-06T10:00:08;10.60;;;1.58;;
20657;SDS011;10488;50.846;4.078;2023-08-06T10:02:37;8.20;;;1.60;;
20657;SDS011;10488;50.846;4.078;2023-08-06T10:05:04;5.07;;;1.50;;
20657;SDS011;10488;50.846;4.078;2023-08-06T10:07:31;4.93;;;1.40;;
20657;SDS011;10488;50.846;4.078;2023-08-06T10:09:56;7.40;;;1.45;;
20657;SDS011;10488;50.846;4.078;2023-08-06T10:12:23;3.33;;;1.48;;
20657;SDS011;10488;50.846;4.078;2023-08-06T10:14:50;4.80;;;2.03;;
20657;SDS011;10488;50.846;4.078;2023-08-06T10:17:22;11.00;;;1.77;;
20657;SDS011;10488;50.846;4.078;2023-08-06T10:19:49;3.83;;;1.10;;
20657;SDS011;10488;50.846;4.078;2023-08-06T10:22:16;10.50;;;1.40;;
20657;SDS011;10488;50.846;4.078;2023-08-06T10:24:59;10.32;;;1.98;;
20657;SDS011;10488;50.846;4.078;2023-08-06T10:27:39;13.07;;;1.83;;
20657;SDS011;10488;50.846;4.078;2023-08-06T10:37:59;7.07;;;1.50;;
20657;SDS011;10488;50.846;4.078;2023-08-06T10:40:41;10.70;;;2.47;;
20657;SDS011;10488;50.846;4.078;2023-08-06T10:43:29;8.15;;;1.67;;
20657;SDS011;10488;50.846;4.078;2023-08-06T10:45:55;6.38;;;1.65;;
20657;SDS011;10488;50.846;4.078;2023-08-06T10:48:38;5.53;;;1.60;;
20657;SDS011;10488;50.846;4.078;2023-08-06T10:51:08;11.35;;;2.35;;
20657;SDS011;10488;50.846;4.078;2023-08-06T10:53:35;7.60;;;1.75;;
20657;SDS011;10488;50.846;4.078;2023-08-06T10:56:01;8.23;;;1.73;;
20657;SDS011;10488;50.846;4.078;2023-08-06T10:58:36;5.35;;;1.67;;
20657;SDS011;10488;50.846;4.078;2023-08-06T11:01:02;6.15;;;1.48;;
20657;SDS011;10488;50.846;4.078;2023-08-06T11:03:28;9.02;;;1.65;;
20657;SDS011;10488;50.846;4.078;2023-08-06T11:05:54;4.25;;;1.55;;
20657;SDS011;10488;50.846;4.078;2023-08-06T11:08:23;8.02;;;2.05;;
20657;SDS011;10488;50.846;4.078;2023-08-06T11:10:52;9.77;;;1.67;;
20657;SDS011;10488;50.846;4.078;2023-08-06T11:13:18;6.70;;;1.77;;
20657;SDS011;10488;50.846;4.078;2023-08-06T11:15:45;6.57;;;2.38;;
20657;SDS011;10488;50.846;4.078;2023-08-06T11:18:10;5.80;;;1.50;;
20657;SDS011;10488;50.846;4.078;2023-08-06T11:20:36;7.78;;;1.38;;
20657;SDS011;10488;50.846;4.078;2023-08-06T11:23:02;6.72;;;1.50;;
20657;SDS011;10488;50.846;4.078;2023-08-06T11:25:30;6.40;;;1.70;;
20657;SDS011;10488;50.846;4.078;2023-08-06T11:27:56;6.90;;;1.90;;
20657;SDS011;10488;50.846;4.078;2023-08-06T11:30:21;9.73;;;1.70;;
20657;SDS011;10488;50.846;4.078;2023-08-06T11:32:47;5.97;;;1.20;;
20657;SDS011;10488;50.846;4.078;2023-08-06T11:35:14;6.80;;;1.50;;
20657;SDS011;10488;50.846;4.078;2023-08-06T11:37:46;4.97;;;1.33;;
20657;SDS011;10488;50.846;4.078;2023-08-06T11:40:14;6.20;;;1.92;;
20657;SDS011;10488;50.846;4.078;2023-08-06T11:42:40;9.55;;;2.03;;
20657;SDS011;10488;50.846;4.078;2023-08-06T11:45:07;8.50;;;1.98;;
20657;SDS011;10488;50.846;4.078;2023-08-06T11:47:39;6.30;;;1.52;;
20657;SDS011;10488;50.846;4.078;2023-08-06T11:50:06;8.88;;;2.10;;
20657;SDS011;10488;50.846;4.078;2023-08-06T11:52:32;9.15;;;1.60;;
20657;SDS011;10488;50.846;4.078;2023-08-06T11:55:07;6.30;;;1.55;;
20657;SDS011;10488;50.846;4.078;2023-08-06T11:57:37;5.20;;;1.02;;
20657;SDS011;10488;50.846;4.078;2023-08-06T12:00:05;7.47;;;1.60;;
20657;SDS011;10488;50.846;4.078;2023-08-06T12:02:35;7.28;;;1.45;;
20657;SDS011;10488;50.846;4.078;2023-08-06T12:05:24;7.35;;;2.05;;
20657;SDS011;10488;50.846;4.078;2023-08-06T12:07:55;6.70;;;1.05;;
20657;SDS011;10488;50.846;4.078;2023-08-06T12:10:23;6.63;;;1.70;;
20657;SDS011;10488;50.846;4.078;2023-08-06T12:12:50;3.88;;;1.23;;
20657;SDS011;10488;50.846;4.078;2023-08-06T12:15:16;7.32;;;1.60;;
20657;SDS011;10488;50.846;4.078;2023-08-06T12:17:42;9.57;;;1.90;;
20657;SDS011;10488;50.846;4.078;2023-08-06T12:20:08;4.45;;;1.52;;
20657;SDS011;10488;50.846;4.078;2023-08-06T12:22:34;8.27;;;1.40;;
20657;SDS011;10488;50.846;4.078;2023-08-06T12:25:07;6.28;;;1.67;;
20657;SDS011;10488;50.846;4.078;2023-08-06T12:27:46;9.40;;;2.25;;
20657;SDS011;10488;50.846;4.078;2023-08-06T12:30:12;8.65;;;1.55;;
20657;SDS011;10488;50.846;4.078;2023-08-06T12:32:38;7.00;;;1.98;;
20657;SDS011;10488;50.846;4.078;2023-08-06T12:35:04;5.22;;;1.25;;
20657;SDS011;10488;50.846;4.078;2023-08-06T12:37:32;4.22;;;1.20;;
20657;SDS011;10488;50.846;4.078;2023-08-06T12:39:58;9.60;;;1.55;;
20657;SDS011;10488;50.846;4.078;2023-08-06T12:42:23;4.57;;;1.42;;
20657;SDS011;10488;50.846;4.078;2023-08-06T12:44:49;6.50;;;1.85;;
20657;SDS011;10488;50.846;4.078;2023-08-06T12:47:18;8.63;;;2.40;;
20657;SDS011;10488;50.846;4.078;2023-08-06T12:49:43;5.22;;;1.75;;
20657;SDS011;10488;50.846;4.078;2023-08-06T12:52:09;10.65;;;2.10;;
20657;SDS011;10488;50.846;4.078;2023-08-06T12:54:37;3.42;;;1.60;;
20657;SDS011;10488;50.846;4.078;2023-08-06T12:57:03;7.45;;;2.05;;
20657;SDS011;10488;50.846;4.078;2023-08-06T12:59:29;8.50;;;1.88;;
20657;SDS011;10488;50.846;4.078;2023-08-06T13:01:56;7.45;;;1.90;;
20657;SDS011;10488;50.846;4.078;2023-08-06T13:04:21;10.65;;;1.75;;
20657;SDS011;10488;50.846;4.078;2023-08-06T13:06:47;6.68;;;1.50;;
20657;SDS011;10488;50.846;4.078;2023-08-06T13:09:13;6.32;;;1.50;;
20657;SDS011;10488;50.846;4.078;2023-08-06T13:11:39;8.88;;;1.92;;
20657;SDS011;10488;50.846;4.078;2023-08-06T13:14:06;11.50;;;1.85;;
20657;SDS011;10488;50.846;4.078;2023-08-06T13:16:33;4.55;;;1.27;;
20657;SDS011;10488;50.846;4.078;2023-08-06T13:19:00;5.05;;;1.52;;
20657;SDS011;10488;50.846;4.078;2023-08-06T13:21:37;4.50;;;1.25;;
20657;SDS011;10488;50.846;4.078;2023-08-06T13:24:17;13.07;;;2.05;;
20657;SDS011;10488;50.846;4.078;2023-08-06T13:26:43;4.95;;;1.42;;
20657;SDS011;10488;50.846;4.078;2023-08-06T13:29:09;6.53;;;1.45;;
20657;SDS011;10488;50.846;4.078;2023-08-06T13:31:37;9.23;;;1.20;;
20657;SDS011;10488;50.846;4.078;2023-08-06T13:34:03;6.80;;;1.25;;
20657;SDS011;10488;50.846;4.078;2023-08-06T13:36:29;9.63;;;1.48;;
20657;SDS011;10488;50.846;4.078;2023-08-06T13:38:55;8.25;;;1.92;;
20657;SDS011;10488;50.846;4.078;2023-08-06T13:41:21;7.50;;;1.55;;
20657;SDS011;10488;50.846;4.078;2023-08-06T13:43:47;7.28;;;1.17;;
20657;SDS011;10488;50.846;4.078;2023-08-06T13:46:12;5.38;;;1.67;;
20657;SDS011;10488;50.846;4.078;2023-08-06T13:48:41;5.25;;;1.27;;
20657;SDS011;10488;50.846;4.078;2023-08-06T13:51:07;9.30;;;1.73;;
20657;SDS011;10488;50.846;4.078;2023-08-06T13:53:33;5.93;;;1.25;;
20657;SDS011;10488;50.846;4.078;2023-08-06T13:55:58;3.30;;;1.40;;
20657;SDS011;10488;50.846;4.078;2023-08-06T13:58:24;7.40;;;1.50;;
20657;SDS011;10488;50.846;4.078;2023-08-06T14:00:51;8.13;;;1.13;;
20657;SDS011;10488;50.846;4.078;2023-08-06T14:03:19;4.30;;;1.20;;
20657;SDS011;10488;50.846;4.078;2023-08-06T14:05:45;10.05;;;1.65;;
20657;SDS011;10488;50.846;4.078;2023-08-06T14:08:11;5.75;;;1.13;;
20657;SDS011;10488;50.846;4.078;2023-08-06T14:10:37;6.70;;;1.50;;
20657;SDS011;10488;50.846;4.078;2023-08-06T14:13:03;3.95;;;1.17;;
20657;SDS011;10488;50.846;4.078;2023-08-06T14:15:28;5.78;;;1.63;;
20657;SDS011;10488;50.846;4.078;2023-08-06T14:17:54;8.40;;;1.60;;
20657;SDS011;10488;50.846;4.078;2023-08-06T14:20:19;5.30;;;1.45;;
20657;SDS011;10488;50.846;4.078;2023-08-06T14:22:45;6.78;;;1.15;;
20657;SDS011;10488;50.846;4.078;2023-08-06T14:25:11;12.23;;;1.55;;
20657;SDS011;10488;50.846;4.078;2023-08-06T14:27:36;16.70;;;3.15;;
20657;SDS011;10488;50.846;4.078;2023-08-06T14:30:04;7.50;;;1.20;;
20657;SDS011;10488;50.846;4.078;2023-08-06T14:32:31;10.93;;;2.00;;
20657;SDS011;10488;50.846;4.078;2023-08-06T14:34:57;6.45;;;1.85;;
20657;SDS011;10488;50.846;4.078;2023-08-06T14:37:24;7.13;;;1.20;;
20657;SDS011;10488;50.846;4.078;2023-08-06T14:39:50;7.85;;;1.75;;
20657;SDS011;10488;50.846;4.078;2023-08-06T14:42:16;5.88;;;1.83;;
20657;SDS011;10488;50.846;4.078;2023-08-06T14:44:43;9.52;;;1.58;;
20657;SDS011;10488;50.846;4.078;2023-08-06T14:47:08;8.18;;;1.48;;
20657;SDS011;10488;50.846;4.078;2023-08-06T14:49:34;10.60;;;2.13;;
20657;SDS011;10488;50.846;4.078;2023-08-06T14:52:00;6.75;;;1.90;;
20657;SDS011;10488;50.846;4.078;2023-08-06T14:54:27;8.45;;;1.50;;
20657;SDS011;10488;50.846;4.078;2023-08-06T14:56:53;7.55;;;2.63;;